TimePST,TemperatureF,Dew PointF,Humidity,Sea Level PressureIn,VisibilityMPH,Wind Direction,Wind SpeedMPH,Gust SpeedMPH,PrecipitationIn,Events,Conditions,WindDirDegrees,DateUTC
12:53 AM,45.0,43.0,93,29.80,6.0,SW,20.7,32.2,0.07,Rain,Rain,220,2012-11-20 08:53:00
1:26 AM,44.6,44.6,100,29.77,10.0,SSW,16.1,21.9,0.03,Rain,Light Rain,200,2012-11-20 09:26:00
1:53 AM,46.0,44.1,93,29.78,10.0,South,16.1,23.0,0.03,,Overcast,190,2012-11-20 09:53:00
2:53 AM,46.0,43.0,89,29.79,10.0,South,17.3,25.3,0.00,,Overcast,190,2012-11-20 10:53:00
3:23 AM,46.4,42.8,87,29.78,10.0,SSW,16.1,24.2,N/A,,Overcast,200,2012-11-20 11:23:00
3:53 AM,46.0,43.0,89,29.79,10.0,South,12.7,20.7,0.00,Rain,Light Rain,190,2012-11-20 11:53:00
4:14 AM,46.4,42.8,87,29.79,10.0,South,11.5,-,0.00,Rain,Light Rain,190,2012-11-20 12:14:00
4:53 AM,45.0,43.0,93,29.82,10.0,SSW,11.5,-,0.00,Rain,Light Rain,200,2012-11-20 12:53:00
5:53 AM,45.0,44.1,97,29.79,10.0,SSE,5.8,-,0.02,,Overcast,150,2012-11-20 13:53:00
6:32 AM,44.6,44.6,100,29.75,10.0,SSE,9.2,-,0.00,Rain,Light Rain,150,2012-11-20 14:32:00
6:53 AM,45.0,44.1,97,29.75,10.0,SE,11.5,-,0.00,Rain,Light Rain,140,2012-11-20 14:53:00
7:16 AM,44.6,44.6,100,29.75,10.0,South,8.1,-,0.00,Rain,Light Rain,170,2012-11-20 15:16:00
7:42 AM,44.6,44.6,100,29.75,8.0,SSE,8.1,-,0.01,Rain,Light Rain,150,2012-11-20 15:42:00
7:53 AM,45.0,44.1,97,29.76,6.0,SE,8.1,-,0.02,Rain,Light Rain,140,2012-11-20 15:53:00
8:45 AM,46.4,44.6,93,29.75,7.0,SSE,9.2,-,0.04,Rain,Light Rain,160,2012-11-20 16:45:00
8:53 AM,46.0,45.0,96,29.77,7.0,SSE,10.4,-,0.04,Rain,Light Rain,150,2012-11-20 16:53:00
9:12 AM,46.4,44.6,93,29.74,6.0,SSE,11.5,-,0.02,Rain,Light Rain,150,2012-11-20 17:12:00
9:36 AM,46.4,44.6,93,29.72,7.0,SSE,11.5,-,0.03,Rain,Light Rain,150,2012-11-20 17:36:00
9:53 AM,46.0,45.0,96,29.76,10.0,South,8.1,-,0.03,,Overcast,180,2012-11-20 17:53:00
10:53 AM,46.0,45.0,96,29.73,9.0,South,9.2,-,0.02,Rain,Light Rain,170,2012-11-20 18:53:00
11:09 AM,46.4,44.6,93,29.71,7.0,South,10.4,-,0.01,Rain,Light Rain,180,2012-11-20 19:09:00
11:53 AM,46.0,45.0,96,29.72,7.0,SSE,8.1,-,0.05,Rain,Light Rain,160,2012-11-20 19:53:00
12:53 PM,46.0,45.0,96,29.72,6.0,SSE,10.4,-,0.05,Rain,Light Rain,150,2012-11-20 20:53:00
1:53 PM,46.9,46.0,97,29.70,10.0,SE,12.7,-,0.09,,Mostly Cloudy,130,2012-11-20 21:53:00
2:03 PM,46.4,46.4,100,29.68,10.0,SSE,9.2,-,N/A,,Mostly Cloudy,150,2012-11-20 22:03:00
2:27 PM,48.2,46.4,93,29.68,10.0,SSE,10.4,-,N/A,,Mostly Cloudy,160,2012-11-20 22:27:00
2:53 PM,48.0,46.0,93,29.70,10.0,South,10.4,-,N/A,,Scattered Clouds,170,2012-11-20 22:53:00
3:53 PM,48.9,45.0,86,29.70,10.0,South,13.8,-,N/A,,Scattered Clouds,190,2012-11-20 23:53:00
4:53 PM,48.0,45.0,89,29.70,10.0,SSW,11.5,-,N/A,,Scattered Clouds,210,2012-11-21 00:53:00
5:53 PM,46.0,43.0,89,29.73,10.0,South,8.1,-,N/A,,Mostly Cloudy,190,2012-11-21 01:53:00
6:53 PM,45.0,43.0,93,29.73,10.0,SSE,8.1,-,N/A,,Mostly Cloudy,160,2012-11-21 02:53:00
7:53 PM,46.0,41.0,83,29.74,10.0,South,13.8,-,N/A,,Overcast,190,2012-11-21 03:53:00
8:53 PM,46.0,39.0,76,29.74,10.0,SSW,16.1,-,N/A,,Overcast,200,2012-11-21 04:53:00
9:53 PM,44.1,39.0,82,29.73,10.0,South,9.2,-,0.00,,Overcast,180,2012-11-21 05:53:00
10:53 PM,43.0,39.0,86,29.73,10.0,South,11.5,-,N/A,,Mostly Cloudy,180,2012-11-21 06:53:00
11:53 PM,43.0,39.9,89,29.71,10.0,SSE,8.1,-,N/A,,Mostly Cloudy,160,2012-11-21 07:53:00